sensor_id;sensor_type;location;lat;lon;timestamp;P1;durP1;ratioP1;P2;durP2;ratioP2
49614;SDS011;35517;45.272;9.984;2023-02-01T00:02:11;65.32;;;31.90;;
49614;SDS011;35517;45.272;9.984;2023-02-01T00:04:38;75.18;;;34.40;;
49614;SDS011;35517;45.272;9.984;2023-02-01T00:07:05;68.25;;;34.55;;
49614;SDS011;35517;45.272;9.984;2023-02-01T00:09:32;63.45;;;34.83;;
49614;SDS011;35517;45.272;9.984;2023-02-01T00:11:59;55.85;;;30.75;;
49614;SDS011;35517;45.272;9.984;2023-02-01T00:14:27;68.97;;;34.75;;
49614;SDS011;35517;45.272;9.984;2023-02-01T00:16:54;66.57;;;36.60;;
49614;SDS011;35517;45.272;9.984;2023-02-01T00:19:21;63.13;;;35.55;;
49614;SDS011;35517;45.272;9.984;2023-02-01T00:21:47;78.47;;;37.63;;
49614;SDS011;35517;45.272;9.984;2023-02-01T00:24:14;65.57;;;35.90;;
49614;SDS011;35517;45.272;9.984;2023-02-01T00:26:41;71.72;;;36.42;;
49614;SDS011;35517;45.272;9.984;2023-02-01T00:29:12;69.97;;;34.80;;
49614;SDS011;35517;45.272;9.984;2023-02-01T00:31:39;67.95;;;33.50;;
49614;SDS011;35517;45.272;9.984;2023-02-01T00:34:16;68.45;;;33.72;;
49614;SDS011;35517;45.272;9.984;2023-02-01T00:36:43;74.03;;;37.88;;
49614;SDS011;35517;45.272;9.984;2023-02-01T00:39:10;68.70;;;37.17;;
49614;SDS011;35517;45.272;9.984;2023-02-01T00:41:37;89.47;;;37.55;;
49614;SDS011;35517;45.272;9.984;2023-02-01T00:44:03;59.60;;;32.75;;
49614;SDS011;35517;45.272;9.984;2023-02-01T00:46:30;59.15;;;31.52;;
49614;SDS011;35517;45.272;9.984;2023-02-01T00:48:57;55.75;;;33.25;;
49614;SDS011;35517;45.272;9.984;2023-02-01T00:51:25;61.47;;;31.48;;
49614;SDS011;35517;45.272;9.984;2023-02-01T00:53:52;58.65;;;31.90;;
49614;SDS011;35517;45.272;9.984;2023-02-01T00:56:19;60.92;;;32.88;;
49614;SDS011;35517;45.272;9.984;2023-02-01T00:58:46;65.47;;;34.13;;
49614;SDS011;35517;45.272;9.984;2023-02-01T01:01:17;61.10;;;32.60;;
49614;SDS011;35517;45.272;9.984;2023-02-01T01:03:45;70.03;;;35.33;;
49614;SDS011;35517;45.272;9.984;2023-02-01T01:06:13;60.50;;;34.33;;
49614;SDS011;35517;45.272;9.984;2023-02-01T01:08:40;62.95;;;33.17;;
49614;SDS011;35517;45.272;9.984;2023-02-01T01:11:08;68.13;;;35.55;;
49614;SDS011;35517;45.272;9.984;2023-02-01T01:13:36;66.80;;;33.95;;
49614;SDS011;35517;45.272;9.984;2023-02-01T01:16:03;54.65;;;32.55;;
49614;SDS011;35517;45.272;9.984;2023-02-01T01:18:31;63.13;;;36.45;;
49614;SDS011;35517;45.272;9.984;2023-02-01T01:20:58;63.13;;;31.70;;
49614;SDS011;35517;45.272;9.984;2023-02-01T01:23:25;65.20;;;35.63;;
49614;SDS011;35517;45.272;9.984;2023-02-01T01:25:52;61.38;;;32.90;;
49614;SDS011;35517;45.272;9.984;2023-02-01T01:28:19;71.43;;;33.97;;
49614;SDS011;35517;45.272;9.984;2023-02-01T01:30:45;64.43;;;33.22;;
49614;SDS011;35517;45.272;9.984;2023-02-01T01:33:12;58.75;;;32.40;;
49614;SDS011;35517;45.272;9.984;2023-02-01T01:35:39;59.03;;;32.33;;
49614;SDS011;35517;45.272;9.984;2023-02-01T01:38:06;59.70;;;32.72;;
49614;SDS011;35517;45.272;9.984;2023-02-01T01:40:32;58.13;;;31.02;;
49614;SDS011;35517;45.272;9.984;2023-02-01T01:42:59;60.47;;;32.80;;
49614;SDS011;35517;45.272;9.984;2023-02-01T01:45:27;56.97;;;31.15;;
49614;SDS011;35517;45.272;9.984;2023-02-01T01:47:56;60.78;;;32.10;;
49614;SDS011;35517;45.272;9.984;2023-02-01T01:50:27;60.05;;;31.98;;
49614;SDS011;35517;45.272;9.984;2023-02-01T01:52:55;61.83;;;33.58;;
49614;SDS011;35517;45.272;9.984;2023-02-01T01:55:24;65.72;;;32.53;;
49614;SDS011;35517;45.272;9.984;2023-02-01T01:58:14;57.78;;;32.17;;
49614;SDS011;35517;45.272;9.984;2023-02-01T02:00:39;62.70;;;30.60;;
49614;SDS011;35517;45.272;9.984;2023-02-01T02:03:20;61.97;;;31.67;;
49614;SDS011;35517;45.272;9.984;2023-02-01T02:05:48;60.72;;;30.63;;
49614;SDS011;35517;45.272;9.984;2023-02-01T02:08:16;51.40;;;27.48;;
49614;SDS011;35517;45.272;9.984;2023-02-01T02:10:43;53.38;;;29.15;;
49614;SDS011;35517;45.272;9.984;2023-02-01T02:13:32;57.60;;;27.73;;
49614;SDS011;35517;45.272;9.984;2023-02-01T02:30:04;60.17;;;30.63;;
49614;SDS011;35517;45.272;9.984;2023-02-01T02:38:26;65.20;;;32.03;;
49614;SDS011;35517;45.272;9.984;2023-02-01T02:46:37;62.65;;;31.48;;
49614;SDS011;35517;45.272;9.984;2023-02-01T02:49:26;61.90;;;34.58;;
49614;SDS011;35517;45.272;9.984;2023-02-01T02:51:59;68.63;;;35.83;;
49614;SDS011;35517;45.272;9.984;2023-02-01T02:54:47;65.70;;;37.05;;
49614;SDS011;35517;45.272;9.984;2023-02-01T02:57:25;67.13;;;35.65;;
49614;SDS011;35517;45.272;9.984;2023-02-01T03:00:13;72.03;;;39.55;;
49614;SDS011;35517;45.272;9.984;2023-02-01T03:03:00;71.55;;;37.08;;
49614;SDS011;35517;45.272;9.984;2023-02-01T03:05:46;74.88;;;38.47;;
49614;SDS011;35517;45.272;9.984;2023-02-01T03:08:24;76.70;;;37.55;;
49614;SDS011;35517;45.272;9.984;2023-02-01T03:13:38;75.07;;;33.92;;
49614;SDS011;35517;45.272;9.984;2023-02-01T03:18:35;72.72;;;34.78;;
49614;SDS011;35517;45.272;9.984;2023-02-01T03:21:04;63.67;;;35.10;;
49614;SDS011;35517;45.272;9.984;2023-02-01T03:23:33;63.85;;;32.33;;
49614;SDS011;35517;45.272;9.984;2023-02-01T03:26:01;60.45;;;34.22;;
49614;SDS011;35517;45.272;9.984;2023-02-01T03:28:29;61.17;;;34.25;;
49614;SDS011;35517;45.272;9.984;2023-02-01T03:30:57;67.20;;;33.85;;
49614;SDS011;35517;45.272;9.984;2023-02-01T03:33:25;73.93;;;32.70;;
49614;SDS011;35517;45.272;9.984;2023-02-01T03:35:59;75.10;;;35.72;;
49614;SDS011;35517;45.272;9.984;2023-02-01T03:38:31;57.67;;;31.92;;
49614;SDS011;35517;45.272;9.984;2023-02-01T03:41:23;59.25;;;31.65;;
49614;SDS011;35517;45.272;9.984;2023-02-01T03:46:20;61.03;;;33.38;;
49614;SDS011;35517;45.272;9.984;2023-02-01T03:48:49;63.67;;;32.10;;
49614;SDS011;35517;45.272;9.984;2023-02-01T03:51:17;60.25;;;30.73;;
49614;SDS011;35517;45.272;9.984;2023-02-01T03:53:45;56.53;;;33.10;;
49614;SDS011;35517;45.272;9.984;2023-02-01T03:56:17;59.97;;;32.55;;
49614;SDS011;35517;45.272;9.984;2023-02-01T03:58:44;60.50;;;33.75;;
49614;SDS011;35517;45.272;9.984;2023-02-01T04:01:25;63.53;;;33.60;;
49614;SDS011;35517;45.272;9.984;2023-02-01T04:03:52;70.65;;;33.95;;
49614;SDS011;35517;45.272;9.984;2023-02-01T04:06:19;58.80;;;33.45;;
49614;SDS011;35517;45.272;9.984;2023-02-01T04:08:45;58.95;;;31.60;;
49614;SDS011;35517;45.272;9.984;2023-02-01T04:11:12;67.15;;;32.80;;
49614;SDS011;35517;45.272;9.984;2023-02-01T04:13:39;62.15;;;32.97;;
49614;SDS011;35517;45.272;9.984;2023-02-01T04:16:05;58.45;;;32.03;;
49614;SDS011;35517;45.272;9.984;2023-02-01T04:18:32;59.22;;;30.95;;
49614;SDS011;35517;45.272;9.984;2023-02-01T04:20:59;62.17;;;31.63;;
49614;SDS011;35517;45.272;9.984;2023-02-01T04:23:26;59.03;;;32.45;;
49614;SDS011;35517;45.272;9.984;2023-02-01T04:26:03;51.88;;;28.23;;
49614;SDS011;35517;45.272;9.984;2023-02-01T04:28:30;57.15;;;30.70;;
49614;SDS011;35517;45.272;9.984;2023-02-01T04:30:57;61.22;;;30.08;;
49614;SDS011;35517;45.272;9.984;2023-02-01T04:33:24;54.33;;;31.38;;
49614;SDS011;35517;45.272;9.984;2023-02-01T04:35:50;56.65;;;29.10;;
49614;SDS011;35517;45.272;9.984;2023-02-01T04:38:17;57.85;;;32.28;;
49614;SDS011;35517;45.272;9.984;2023-02-01T04:40:46;60.00;;;31.98;;
49614;SDS011;35517;45.272;9.984;2023-02-01T04:43:13;54.10;;;29.58;;
49614;SDS011;35517;45.272;9.984;2023-02-01T04:45:39;55.75;;;28.30;;
49614;SDS011;35517;45.272;9.984;2023-02-01T04:48:06;54.67;;;29.23;;
49614;SDS011;35517;45.272;9.984;2023-02-01T04:50:32;52.40;;;29.98;;
49614;SDS011;35517;45.272;9.984;2023-02-01T04:52:59;45.30;;;26.17;;
49614;SDS011;35517;45.272;9.984;2023-02-01T04:55:25;45.33;;;24.52;;
49614;SDS011;35517;45.272;9.984;2023-02-01T04:57:52;37.75;;;22.75;;
49614;SDS011;35517;45.272;9.984;2023-02-01T05:00:19;43.95;;;24.30;;
49614;SDS011;35517;45.272;9.984;2023-02-01T05:02:45;45.75;;;26.95;;
49614;SDS011;35517;45.272;9.984;2023-02-01T05:05:12;50.33;;;27.73;;
49614;SDS011;35517;45.272;9.984;2023-02-01T05:07:47;52.28;;;28.85;;
49614;SDS011;35517;45.272;9.984;2023-02-01T05:10:13;47.92;;;29.58;;
49614;SDS011;35517;45.272;9.984;2023-02-01T05:12:40;51.75;;;29.00;;
49614;SDS011;35517;45.272;9.984;2023-02-01T05:15:27;52.78;;;28.80;;
49614;SDS011;35517;45.272;9.984;2023-02-01T05:17:54;46.97;;;25.42;;
49614;SDS011;35517;45.272;9.984;2023-02-01T05:20:20;78.95;;;22.17;;
49614;SDS011;35517;45.272;9.984;2023-02-01T05:22:47;33.90;;;20.48;;
49614;SDS011;35517;45.272;9.984;2023-02-01T05:25:14;138.82;;;26.05;;
49614;SDS011;35517;45.272;9.984;2023-02-01T05:27:40;94.30;;;27.55;;
49614;SDS011;35517;45.272;9.984;2023-02-01T05:30:07;52.05;;;27.55;;
49614;SDS011;35517;45.272;9.984;2023-02-01T05:32:34;40.92;;;24.02;;
49614;SDS011;35517;45.272;9.984;2023-02-01T05:35:01;53.30;;;28.50;;
49614;SDS011;35517;45.272;9.984;2023-02-01T05:37:27;56.95;;;29.77;;
49614;SDS011;35517;45.272;9.984;2023-02-01T05:39:54;52.42;;;29.85;;
49614;SDS011;35517;45.272;9.984;2023-02-01T05:42:21;59.67;;;28.08;;
49614;SDS011;35517;45.272;9.984;2023-02-01T05:44:47;54.28;;;30.38;;
49614;SDS011;35517;45.272;9.984;2023-02-01T05:47:29;60.05;;;29.33;;
49614;SDS011;35517;45.272;9.984;2023-02-01T05:49:56;59.78;;;30.98;;
49614;SDS011;35517;45.272;9.984;2023-02-01T05:52:22;53.90;;;29.48;;
49614;SDS011;35517;45.272;9.984;2023-02-01T05:54:49;54.03;;;29.25;;
49614;SDS011;35517;45.272;9.984;2023-02-01T05:57:16;165.77;;;34.10;;
49614;SDS011;35517;45.272;9.984;2023-02-01T05:59:42;91.13;;;29.65;;
49614;SDS011;35517;45.272;9.984;2023-02-01T06:02:13;130.35;;;29.90;;
49614;SDS011;35517;45.272;9.984;2023-02-01T06:04:39;65.32;;;27.10;;
49614;SDS011;35517;45.272;9.984;2023-02-01T06:07:06;51.97;;;28.60;;
49614;SDS011;35517;45.272;9.984;2023-02-01T06:09:34;70.22;;;31.05;;
49614;SDS011;35517;45.272;9.984;2023-02-01T06:12:02;57.03;;;29.38;;
49614;SDS011;35517;45.272;9.984;2023-02-01T06:14:29;145.85;;;29.98;;
49614;SDS011;35517;45.272;9.984;2023-02-01T06:16:55;151.32;;;30.02;;
49614;SDS011;35517;45.272;9.984;2023-02-01T06:19:22;68.72;;;29.60;;
49614;SDS011;35517;45.272;9.984;2023-02-01T06:21:49;69.88;;;31.75;;
49614;SDS011;35517;45.272;9.984;2023-02-01T06:24:15;54.40;;;31.23;;
49614;SDS011;35517;45.272;9.984;2023-02-01T06:26:42;75.88;;;35.45;;
49614;SDS011;35517;45.272;9.984;2023-02-01T06:29:11;75.57;;;36.42;;
49614;SDS011;35517;45.272;9.984;2023-02-01T06:31:38;70.22;;;33.72;;
49614;SDS011;35517;45.272;9.984;2023-02-01T06:34:05;86.18;;;39.13;;
49614;SDS011;35517;45.272;9.984;2023-02-01T06:36:32;84.28;;;41.13;;
49614;SDS011;35517;45.272;9.984;2023-02-01T06:38:59;101.90;;;37.35;;
49614;SDS011;35517;45.272;9.984;2023-02-01T06:41:25;85.93;;;39.80;;
49614;SDS011;35517;45.272;9.984;2023-02-01T06:43:52;82.35;;;40.97;;
49614;SDS011;35517;45.272;9.984;2023-02-01T06:46:19;80.10;;;37.25;;
49614;SDS011;35517;45.272;9.984;2023-02-01T06:48:45;72.93;;;35.55;;
49614;SDS011;35517;45.272;9.984;2023-02-01T06:51:17;78.97;;;37.72;;
49614;SDS011;35517;45.272;9.984;2023-02-01T06:53:45;70.97;;;37.58;;
49614;SDS011;35517;45.272;9.984;2023-02-01T06:56:11;71.30;;;38.13;;
49614;SDS011;35517;45.272;9.984;2023-02-01T06:58:38;67.68;;;36.22;;
49614;SDS011;35517;45.272;9.984;2023-02-01T07:01:05;72.07;;;36.67;;
49614;SDS011;35517;45.272;9.984;2023-02-01T07:03:32;63.25;;;33.92;;
49614;SDS011;35517;45.272;9.984;2023-02-01T07:05:58;63.72;;;34.28;;
49614;SDS011;35517;45.272;9.984;2023-02-01T07:08:29;68.15;;;35.30;;
49614;SDS011;35517;45.272;9.984;2023-02-01T07:10:56;62.05;;;34.08;;
49614;SDS011;35517;45.272;9.984;2023-02-01T07:13:23;63.00;;;35.10;;
49614;SDS011;35517;45.272;9.984;2023-02-01T07:15:49;61.78;;;33.83;;
49614;SDS011;35517;45.272;9.984;2023-02-01T07:18:16;69.82;;;37.50;;
49614;SDS011;35517;45.272;9.984;2023-02-01T07:20:43;68.22;;;36.88;;
49614;SDS011;35517;45.272;9.984;2023-02-01T07:23:09;59.92;;;34.75;;
49614;SDS011;35517;45.272;9.984;2023-02-01T07:25:36;69.40;;;34.33;;
49614;SDS011;35517;45.272;9.984;2023-02-01T07:28:03;73.75;;;38.28;;
49614;SDS011;35517;45.272;9.984;2023-02-01T07:30:30;67.20;;;37.40;;
49614;SDS011;35517;45.272;9.984;2023-02-01T07:32:56;65.88;;;36.15;;
49614;SDS011;35517;45.272;9.984;2023-02-01T07:35:29;68.10;;;37.60;;
49614;SDS011;35517;45.272;9.984;2023-02-01T07:37:59;72.18;;;37.40;;
49614;SDS011;35517;45.272;9.984;2023-02-01T07:40:25;75.95;;;38.58;;
49614;SDS011;35517;45.272;9.984;2023-02-01T07:42:54;68.93;;;36.20;;
49614;SDS011;35517;45.272;9.984;2023-02-01T07:45:21;73.18;;;35.13;;
49614;SDS011;35517;45.272;9.984;2023-02-01T07:47:51;68.78;;;38.47;;
49614;SDS011;35517;45.272;9.984;2023-02-01T07:50:23;69.70;;;39.33;;
49614;SDS011;35517;45.272;9.984;2023-02-01T07:52:49;73.60;;;37.17;;
49614;SDS011;35517;45.272;9.984;2023-02-01T07:55:16;76.30;;;39.38;;
49614;SDS011;35517;45.272;9.984;2023-02-01T07:57:42;75.30;;;38.80;;
49614;SDS011;35517;45.272;9.984;2023-02-01T08:00:09;69.88;;;37.25;;
49614;SDS011;35517;45.272;9.984;2023-02-01T08:02:57;69.50;;;36.42;;
49614;SDS011;35517;45.272;9.984;2023-02-01T08:05:23;81.63;;;41.13;;
49614;SDS011;35517;45.272;9.984;2023-02-01T08:07:50;79.03;;;42.45;;
49614;SDS011;35517;45.272;9.984;2023-02-01T08:10:17;76.15;;;40.95;;
49614;SDS011;35517;45.272;9.984;2023-02-01T08:12:44;79.03;;;42.88;;
49614;SDS011;35517;45.272;9.984;2023-02-01T08:15:14;71.15;;;41.40;;
49614;SDS011;35517;45.272;9.984;2023-02-01T08:17:50;79.47;;;41.50;;
49614;SDS011;35517;45.272;9.984;2023-02-01T08:20:18;88.93;;;46.78;;
49614;SDS011;35517;45.272;9.984;2023-02-01T08:22:44;88.00;;;45.22;;
49614;SDS011;35517;45.272;9.984;2023-02-01T08:25:11;89.15;;;46.28;;
49614;SDS011;35517;45.272;9.984;2023-02-01T08:27:38;84.25;;;43.78;;
49614;SDS011;35517;45.272;9.984;2023-02-01T08:30:05;85.22;;;45.08;;
49614;SDS011;35517;45.272;9.984;2023-02-01T08:32:35;78.45;;;40.40;;
49614;SDS011;35517;45.272;9.984;2023-02-01T08:35:02;81.93;;;45.40;;
49614;SDS011;35517;45.272;9.984;2023-02-01T08:37:29;84.60;;;48.65;;
49614;SDS011;35517;45.272;9.984;2023-02-01T08:39:55;77.63;;;42.47;;
49614;SDS011;35517;45.272;9.984;2023-02-01T08:42:22;75.70;;;43.78;;
49614;SDS011;35517;45.272;9.984;2023-02-01T08:45:08;76.68;;;43.08;;
49614;SDS011;35517;45.272;9.984;2023-02-01T08:47:34;80.38;;;42.67;;
49614;SDS011;35517;45.272;9.984;2023-02-01T08:50:01;83.85;;;46.20;;
49614;SDS011;35517;45.272;9.984;2023-02-01T08:52:28;94.50;;;51.85;;
49614;SDS011;35517;45.272;9.984;2023-02-01T08:54:55;89.03;;;49.00;;
49614;SDS011;35517;45.272;9.984;2023-02-01T08:57:21;83.88;;;45.13;;
49614;SDS011;35517;45.272;9.984;2023-02-01T08:59:48;101.63;;;50.70;;
49614;SDS011;35517;45.272;9.984;2023-02-01T09:02:15;96.47;;;49.83;;
49614;SDS011;35517;45.272;9.984;2023-02-01T09:04:43;89.75;;;49.67;;
49614;SDS011;35517;45.272;9.984;2023-02-01T09:07:10;99.13;;;54.17;;
49614;SDS011;35517;45.272;9.984;2023-02-01T09:09:38;81.22;;;46.58;;
49614;SDS011;35517;45.272;9.984;2023-02-01T09:12:05;75.05;;;43.00;;
49614;SDS011;35517;45.272;9.984;2023-02-01T09:14:33;79.15;;;46.20;;
49614;SDS011;35517;45.272;9.984;2023-02-01T09:16:59;65.53;;;39.45;;
49614;SDS011;35517;45.272;9.984;2023-02-01T09:19:26;59.40;;;35.00;;
49614;SDS011;35517;45.272;9.984;2023-02-01T09:21:53;62.10;;;34.45;;
49614;SDS011;35517;45.272;9.984;2023-02-01T09:24:19;69.05;;;38.72;;
49614;SDS011;35517;45.272;9.984;2023-02-01T09:26:46;63.97;;;37.92;;
49614;SDS011;35517;45.272;9.984;2023-02-01T09:29:14;70.25;;;38.65;;
49614;SDS011;35517;45.272;9.984;2023-02-01T09:31:41;69.53;;;38.72;;
49614;SDS011;35517;45.272;9.984;2023-02-01T09:34:08;63.40;;;32.30;;
49614;SDS011;35517;45.272;9.984;2023-02-01T09:36:34;61.03;;;34.15;;
49614;SDS011;35517;45.272;9.984;2023-02-01T09:39:01;61.38;;;34.05;;
49614;SDS011;35517;45.272;9.984;2023-02-01T09:44:16;61.10;;;36.80;;
49614;SDS011;35517;45.272;9.984;2023-02-01T09:46:46;66.32;;;36.90;;
49614;SDS011;35517;45.272;9.984;2023-02-01T09:49:15;54.58;;;33.53;;
49614;SDS011;35517;45.272;9.984;2023-02-01T09:51:46;62.63;;;34.58;;
49614;SDS011;35517;45.272;9.984;2023-02-01T09:54:28;68.40;;;35.60;;
49614;SDS011;35517;45.272;9.984;2023-02-01T09:56:57;61.30;;;35.83;;
49614;SDS011;35517;45.272;9.984;2023-02-01T10:01:53;51.55;;;30.98;;
49614;SDS011;35517;45.272;9.984;2023-02-01T10:04:19;54.03;;;30.75;;
49614;SDS011;35517;45.272;9.984;2023-02-01T10:12:15;62.50;;;34.17;;
49614;SDS011;35517;45.272;9.984;2023-02-01T10:20:12;58.67;;;31.55;;
49614;SDS011;35517;45.272;9.984;2023-02-01T10:25:32;54.58;;;32.03;;
49614;SDS011;35517;45.272;9.984;2023-02-01T10:28:03;58.72;;;33.47;;
49614;SDS011;35517;45.272;9.984;2023-02-01T10:30:31;59.72;;;34.45;;
49614;SDS011;35517;45.272;9.984;2023-02-01T10:33:19;74.72;;;36.58;;
49614;SDS011;35517;45.272;9.984;2023-02-01T10:35:53;57.00;;;32.50;;
49614;SDS011;35517;45.272;9.984;2023-02-01T10:38:27;58.17;;;34.65;;
49614;SDS011;35517;45.272;9.984;2023-02-01T10:40:56;47.78;;;32.13;;
49614;SDS011;35517;45.272;9.984;2023-02-01T10:43:25;51.95;;;29.08;;
49614;SDS011;35517;45.272;9.984;2023-02-01T10:45:51;45.75;;;26.33;;
49614;SDS011;35517;45.272;9.984;2023-02-01T10:48:18;51.47;;;31.08;;
49614;SDS011;35517;45.272;9.984;2023-02-01T10:50:53;48.92;;;28.35;;
49614;SDS011;35517;45.272;9.984;2023-02-01T10:53:25;49.25;;;28.95;;
49614;SDS011;35517;45.272;9.984;2023-02-01T10:55:55;48.28;;;28.67;;
49614;SDS011;35517;45.272;9.984;2023-02-01T10:58:29;61.72;;;31.33;;
49614;SDS011;35517;45.272;9.984;2023-02-01T11:01:04;46.75;;;26.23;;
49614;SDS011;35517;45.272;9.984;2023-02-01T11:08:51;46.72;;;25.48;;
49614;SDS011;35517;45.272;9.984;2023-02-01T11:11:18;45.38;;;26.20;;
49614;SDS011;35517;45.272;9.984;2023-02-01T11:13:45;47.75;;;26.33;;
49614;SDS011;35517;45.272;9.984;2023-02-01T11:16:17;46.05;;;24.30;;
49614;SDS011;35517;45.272;9.984;2023-02-01T11:18:44;37.60;;;21.92;;
49614;SDS011;35517;45.272;9.984;2023-02-01T11:21:12;43.20;;;23.10;;
49614;SDS011;35517;45.272;9.984;2023-02-01T11:23:41;45.53;;;23.05;;
49614;SDS011;35517;45.272;9.984;2023-02-01T11:26:13;36.83;;;21.50;;
49614;SDS011;35517;45.272;9.984;2023-02-01T11:28:41;42.10;;;20.88;;
49614;SDS011;35517;45.272;9.984;2023-02-01T11:31:12;39.65;;;21.30;;
49614;SDS011;35517;45.272;9.984;2023-02-01T11:33:42;35.63;;;20.98;;
49614;SDS011;35517;45.272;9.984;2023-02-01T11:36:13;32.80;;;19.65;;
49614;SDS011;35517;45.272;9.984;2023-02-01T11:38:45;33.33;;;20.13;;
49614;SDS011;35517;45.272;9.984;2023-02-01T11:41:13;24.30;;;16.08;;
49614;SDS011;35517;45.272;9.984;2023-02-01T11:43:50;37.50;;;17.92;;
49614;SDS011;35517;45.272;9.984;2023-02-01T11:46:18;37.33;;;18.20;;
49614;SDS011;35517;45.272;9.984;2023-02-01T11:48:50;37.58;;;18.83;;
49614;SDS011;35517;45.272;9.984;2023-02-01T12:06:35;33.95;;;19.05;;
49614;SDS011;35517;45.272;9.984;2023-02-01T12:11:42;43.78;;;18.77;;
49614;SDS011;35517;45.272;9.984;2023-02-01T12:19:53;33.75;;;19.02;;
49614;SDS011;35517;45.272;9.984;2023-02-01T12:25:42;35.33;;;19.75;;
49614;SDS011;35517;45.272;9.984;2023-02-01T12:38:29;32.70;;;18.63;;
49614;SDS011;35517;45.272;9.984;2023-02-01T12:43:41;34.72;;;17.83;;
49614;SDS011;35517;45.272;9.984;2023-02-01T12:46:16;35.15;;;19.90;;
49614;SDS011;35517;45.272;9.984;2023-02-01T12:48:55;34.65;;;19.15;;
49614;SDS011;35517;45.272;9.984;2023-02-01T12:51:31;31.95;;;19.95;;
49614;SDS011;35517;45.272;9.984;2023-02-01T12:56:38;32.67;;;20.27;;
49614;SDS011;35517;45.272;9.984;2023-02-01T12:59:08;29.15;;;17.58;;
49614;SDS011;35517;45.272;9.984;2023-02-01T13:01:41;33.50;;;19.67;;
49614;SDS011;35517;45.272;9.984;2023-02-01T13:06:45;30.50;;;19.73;;
49614;SDS011;35517;45.272;9.984;2023-02-01T13:11:46;29.98;;;17.65;;
49614;SDS011;35517;45.272;9.984;2023-02-01T13:14:29;29.05;;;16.83;;
49614;SDS011;35517;45.272;9.984;2023-02-01T13:17:00;28.58;;;17.20;;
49614;SDS011;35517;45.272;9.984;2023-02-01T13:22:19;30.05;;;19.38;;
49614;SDS011;35517;45.272;9.984;2023-02-01T13:24:48;26.60;;;16.60;;
49614;SDS011;35517;45.272;9.984;2023-02-01T13:27:17;29.33;;;16.73;;
49614;SDS011;35517;45.272;9.984;2023-02-01T13:29:46;29.30;;;19.63;;
49614;SDS011;35517;45.272;9.984;2023-02-01T13:32:20;30.83;;;17.90;;
49614;SDS011;35517;45.272;9.984;2023-02-01T13:35:00;26.42;;;16.77;;
49614;SDS011;35517;45.272;9.984;2023-02-01T13:42:29;30.77;;;16.80;;
49614;SDS011;35517;45.272;9.984;2023-02-01T13:44:58;31.80;;;16.55;;
49614;SDS011;35517;45.272;9.984;2023-02-01T13:49:53;27.60;;;15.77;;
49614;SDS011;35517;45.272;9.984;2023-02-01T13:52:24;32.50;;;16.15;;
49614;SDS011;35517;45.272;9.984;2023-02-01T13:55:03;26.58;;;15.05;;
49614;SDS011;35517;45.272;9.984;2023-02-01T13:57:38;23.85;;;14.93;;
49614;SDS011;35517;45.272;9.984;2023-02-01T14:15:39;29.45;;;14.13;;
49614;SDS011;35517;45.272;9.984;2023-02-01T14:23:41;22.70;;;12.77;;
49614;SDS011;35517;45.272;9.984;2023-02-01T14:26:10;26.55;;;14.43;;
49614;SDS011;35517;45.272;9.984;2023-02-01T14:28:40;20.63;;;12.98;;
49614;SDS011;35517;45.272;9.984;2023-02-01T14:31:14;36.13;;;14.20;;
49614;SDS011;35517;45.272;9.984;2023-02-01T14:33:41;24.23;;;12.85;;
49614;SDS011;35517;45.272;9.984;2023-02-01T14:36:14;23.33;;;12.63;;
49614;SDS011;35517;45.272;9.984;2023-02-01T14:39:04;29.98;;;14.07;;
49614;SDS011;35517;45.272;9.984;2023-02-01T14:41:34;23.27;;;12.73;;
49614;SDS011;35517;45.272;9.984;2023-02-01T14:49:15;26.33;;;13.43;;
49614;SDS011;35517;45.272;9.984;2023-02-01T14:51:43;23.90;;;14.35;;
49614;SDS011;35517;45.272;9.984;2023-02-01T14:54:11;23.02;;;14.15;;
49614;SDS011;35517;45.272;9.984;2023-02-01T14:56:39;26.70;;;12.98;;
49614;SDS011;35517;45.272;9.984;2023-02-01T14:59:07;23.98;;;11.88;;
49614;SDS011;35517;45.272;9.984;2023-02-01T15:01:36;25.23;;;13.02;;
49614;SDS011;35517;45.272;9.984;2023-02-01T15:04:05;21.23;;;13.45;;
49614;SDS011;35517;45.272;9.984;2023-02-01T15:06:48;23.13;;;14.13;;
49614;SDS011;35517;45.272;9.984;2023-02-01T15:12:00;21.38;;;12.38;;
49614;SDS011;35517;45.272;9.984;2023-02-01T15:14:29;24.17;;;12.73;;
49614;SDS011;35517;45.272;9.984;2023-02-01T15:16:56;27.23;;;14.27;;
49614;SDS011;35517;45.272;9.984;2023-02-01T15:19:26;21.25;;;12.85;;
49614;SDS011;35517;45.272;9.984;2023-02-01T15:21:54;23.98;;;13.77;;
49614;SDS011;35517;45.272;9.984;2023-02-01T15:24:25;26.92;;;14.20;;
49614;SDS011;35517;45.272;9.984;2023-02-01T15:26:54;29.30;;;16.17;;
49614;SDS011;35517;45.272;9.984;2023-02-01T15:29:21;26.35;;;15.38;;
49614;SDS011;35517;45.272;9.984;2023-02-01T15:31:51;30.80;;;16.60;;
49614;SDS011;35517;45.272;9.984;2023-02-01T15:34:19;36.55;;;18.48;;
49614;SDS011;35517;45.272;9.984;2023-02-01T15:36:46;29.48;;;15.93;;
49614;SDS011;35517;45.272;9.984;2023-02-01T15:39:23;31.52;;;16.25;;
49614;SDS011;35517;45.272;9.984;2023-02-01T15:41:55;30.23;;;16.73;;
49614;SDS011;35517;45.272;9.984;2023-02-01T15:44:30;26.15;;;16.05;;
49614;SDS011;35517;45.272;9.984;2023-02-01T15:46:58;27.92;;;16.67;;
49614;SDS011;35517;45.272;9.984;2023-02-01T15:49:32;32.53;;;17.00;;
49614;SDS011;35517;45.272;9.984;2023-02-01T15:52:00;28.80;;;16.40;;
49614;SDS011;35517;45.272;9.984;2023-02-01T15:54:31;30.75;;;17.52;;
49614;SDS011;35517;45.272;9.984;2023-02-01T15:57:02;32.67;;;16.75;;
49614;SDS011;35517;45.272;9.984;2023-02-01T15:59:32;32.63;;;16.67;;
49614;SDS011;35517;45.272;9.984;2023-02-01T16:02:02;26.17;;;15.52;;
49614;SDS011;35517;45.272;9.984;2023-02-01T16:04:29;29.00;;;17.15;;
49614;SDS011;35517;45.272;9.984;2023-02-01T16:07:00;30.35;;;17.35;;
49614;SDS011;35517;45.272;9.984;2023-02-01T16:09:36;27.40;;;17.35;;
49614;SDS011;35517;45.272;9.984;2023-02-01T16:14:51;29.05;;;17.25;;
49614;SDS011;35517;45.272;9.984;2023-02-01T16:17:18;35.28;;;17.02;;
49614;SDS011;35517;45.272;9.984;2023-02-01T16:19:45;34.13;;;17.08;;
49614;SDS011;35517;45.272;9.984;2023-02-01T16:22:12;30.38;;;17.38;;
49614;SDS011;35517;45.272;9.984;2023-02-01T16:24:41;31.05;;;17.23;;
49614;SDS011;35517;45.272;9.984;2023-02-01T16:27:13;28.00;;;18.15;;
49614;SDS011;35517;45.272;9.984;2023-02-01T16:29:40;25.92;;;16.83;;
49614;SDS011;35517;45.272;9.984;2023-02-01T16:32:11;33.78;;;17.83;;
49614;SDS011;35517;45.272;9.984;2023-02-01T16:34:40;40.60;;;20.08;;
49614;SDS011;35517;45.272;9.984;2023-02-01T16:37:11;34.97;;;17.45;;
49614;SDS011;35517;45.272;9.984;2023-02-01T16:39:38;27.63;;;16.80;;
49614;SDS011;35517;45.272;9.984;2023-02-01T16:42:09;30.88;;;17.35;;
49614;SDS011;35517;45.272;9.984;2023-02-01T16:44:42;29.30;;;18.70;;
49614;SDS011;35517;45.272;9.984;2023-02-01T16:47:29;37.38;;;19.30;;
49614;SDS011;35517;45.272;9.984;2023-02-01T16:50:15;27.77;;;17.67;;
49614;SDS011;35517;45.272;9.984;2023-02-01T16:52:46;29.90;;;18.58;;
49614;SDS011;35517;45.272;9.984;2023-02-01T16:55:17;27.45;;;16.70;;
49614;SDS011;35517;45.272;9.984;2023-02-01T16:57:44;31.75;;;17.75;;
49614;SDS011;35517;45.272;9.984;2023-02-01T17:00:11;37.55;;;17.48;;
49614;SDS011;35517;45.272;9.984;2023-02-01T17:02:38;33.88;;;18.02;;